Tomsk, Russia
Current Conditions -  °F | °C
As of 11:00 AM on Saturday 20 Dec 2014 (Local Time) from UNTT Reporting Station
Clear Clear  
Wind Chill: -5°   Ceiling: Unl
Heat Index:   Visibility: 6mi
Dew Point:   Wind: 7mph
Humidity: 92%   Direction: 210°SSW
Pressure: 30.45"   Gusts: NA
Location:  56.5°N, 84.97°E
Report Text: UNTT 200400Z 21003MPS CAVOK M14/M15 Q1031 NOSIG RMK QFE75821490050
Loading
Personal Weather Stations






























Interactive Weather Map New forecast layout! Learn more

10-Day Weather Forecast

Advertisements
Track Severe Weather on mobile